createdAt,value
2022-12-20T00:01:55.308Z,3.90
2022-12-20T00:04:23.607Z,3.90
2022-12-20T00:06:51.799Z,3.90
2022-12-20T00:09:21.277Z,4.00
2022-12-20T00:11:49.563Z,4.00
2022-12-20T00:14:19.389Z,4.00
2022-12-20T00:16:47.525Z,4.10
2022-12-20T00:19:15.676Z,4.10
2022-12-20T00:21:43.919Z,4.20
2022-12-20T00:24:12.252Z,4.20
2022-12-20T00:26:40.718Z,4.10
2022-12-20T00:29:09.511Z,4.20
2022-12-20T00:31:39.052Z,4.20
2022-12-20T00:34:07.263Z,4.20
2022-12-20T00:36:35.601Z,4.20
2022-12-20T00:39:03.801Z,4.20
2022-12-20T00:41:34.681Z,4.20
2022-12-20T00:44:03.445Z,4.10
2022-12-20T00:46:34.187Z,4.10
2022-12-20T00:49:03.842Z,4.10
2022-12-20T00:51:33.745Z,4.10
2022-12-20T00:54:01.919Z,4.00
2022-12-20T00:56:30.020Z,3.90
2022-12-20T00:59:00.679Z,3.80
2022-12-20T01:01:31.987Z,3.80
2022-12-20T01:04:00.813Z,3.80
2022-12-20T01:06:31.651Z,3.80
2022-12-20T01:09:00.726Z,3.80
2022-12-20T01:11:31.469Z,3.80
2022-12-20T01:14:03.712Z,4.00
2022-12-20T01:16:35.864Z,4.00
2022-12-20T01:19:04.890Z,4.10
2022-12-20T01:21:35.185Z,4.10
2022-12-20T01:24:03.349Z,4.10
2022-12-20T01:26:31.745Z,4.20
2022-12-20T01:29:01.580Z,4.30
2022-12-20T01:31:31.337Z,4.30
2022-12-20T01:34:02.781Z,4.30
2022-12-20T01:36:35.908Z,4.40
2022-12-20T01:39:08.366Z,4.30
2022-12-20T01:41:38.865Z,4.30
2022-12-20T01:44:46.376Z,4.20
2022-12-20T01:47:15.280Z,4.20
2022-12-20T01:49:50.084Z,4.20
2022-12-20T01:52:26.427Z,4.40
2022-12-20T01:54:59.501Z,4.30
2022-12-20T01:57:36.096Z,4.30
2022-12-20T02:00:08.515Z,4.30
2022-12-20T02:02:37.656Z,4.30
2022-12-20T02:05:07.025Z,4.30
2022-12-20T02:07:39.825Z,4.40
2022-12-20T02:10:11.540Z,4.30
2022-12-20T02:12:43.075Z,4.30
2022-12-20T02:15:38.827Z,4.30
2022-12-20T02:18:23.302Z,4.30
2022-12-20T02:21:22.021Z,4.50
2022-12-20T02:24:40.183Z,4.50
2022-12-20T02:27:47.281Z,4.50
2022-12-20T02:30:20.158Z,4.40
2022-12-20T02:32:59.056Z,4.30
2022-12-20T02:35:32.673Z,4.40
2022-12-20T02:38:04.962Z,4.40
2022-12-20T02:40:41.806Z,4.30
2022-12-20T02:43:33.631Z,4.30
2022-12-20T02:46:04.270Z,4.20
2022-12-20T02:48:38.348Z,4.20
2022-12-20T02:51:09.998Z,4.20
2022-12-20T02:53:42.706Z,4.10
2022-12-20T02:56:21.385Z,4.10
2022-12-20T02:58:56.397Z,4.10
2022-12-20T03:01:32.262Z,4.00
2022-12-20T03:04:01.728Z,4.00
2022-12-20T03:06:30.683Z,4.10
2022-12-20T03:08:59.041Z,4.00
2022-12-20T03:11:27.207Z,4.00
2022-12-20T03:13:55.448Z,4.00
2022-12-20T03:16:25.112Z,4.00
2022-12-20T03:18:53.305Z,4.10
2022-12-20T03:21:21.424Z,4.00
2022-12-20T03:23:49.794Z,4.10
2022-12-20T03:26:17.919Z,4.10
2022-12-20T03:28:46.059Z,4.10
2022-12-20T03:31:14.279Z,4.10
2022-12-20T03:33:43.854Z,4.10
2022-12-20T03:36:12.141Z,4.10
2022-12-20T03:38:40.266Z,4.00
2022-12-20T03:41:08.412Z,4.10
2022-12-20T03:43:36.481Z,4.10
2022-12-20T03:46:04.684Z,4.10
2022-12-20T03:48:32.841Z,4.10
2022-12-20T03:51:02.360Z,4.10
2022-12-20T03:53:30.629Z,4.20
2022-12-20T03:55:58.788Z,4.20
2022-12-20T03:58:27.144Z,4.20
2022-12-20T04:00:55.269Z,4.10
2022-12-20T04:03:23.442Z,4.20
2022-12-20T04:05:51.922Z,4.20
2022-12-20T04:08:21.426Z,4.20
2022-12-20T04:11:06.982Z,4.20
2022-12-20T04:13:35.091Z,4.20
2022-12-20T04:16:03.258Z,4.10
2022-12-20T04:18:31.456Z,4.20
2022-12-20T04:21:01.455Z,4.20
2022-12-20T04:23:31.431Z,4.30
2022-12-20T04:25:59.541Z,4.20
2022-12-20T04:28:27.655Z,4.20
2022-12-20T04:30:55.927Z,4.30
2022-12-20T04:33:24.530Z,4.30
2022-12-20T04:35:53.382Z,4.30
2022-12-20T04:38:24.542Z,4.30
2022-12-20T04:40:56.236Z,4.30
2022-12-20T04:43:25.583Z,4.20
2022-12-20T04:45:57.147Z,4.20
2022-12-20T04:51:18.032Z,4.30
2022-12-20T04:53:48.808Z,4.20
2022-12-20T04:56:22.096Z,4.20
2022-12-20T04:58:53.387Z,4.20
2022-12-20T05:01:21.857Z,4.30
2022-12-20T05:03:50.708Z,4.30
2022-12-20T05:06:19.748Z,4.20
2022-12-20T05:08:48.448Z,4.30
2022-12-20T05:11:18.591Z,4.30
2022-12-20T05:13:46.714Z,4.30
2022-12-20T05:16:14.925Z,4.40
2022-12-20T05:18:48.927Z,4.50
2022-12-20T05:21:35.398Z,4.50
2022-12-20T05:24:21.097Z,4.50
2022-12-20T05:26:50.621Z,4.50
2022-12-20T05:29:18.789Z,4.70
2022-12-20T05:31:47.568Z,4.70
2022-12-20T05:34:15.934Z,4.80
2022-12-20T05:36:44.451Z,4.70
2022-12-20T05:39:12.700Z,4.70
2022-12-20T05:41:41.219Z,4.80
2022-12-20T05:44:10.711Z,4.90
2022-12-20T05:46:38.988Z,4.90
2022-12-20T05:49:07.148Z,5.00
2022-12-20T05:51:35.428Z,5.00
2022-12-20T05:54:03.652Z,4.90
2022-12-20T05:56:31.807Z,5.00
2022-12-20T05:59:00.016Z,5.00
2022-12-20T06:01:29.569Z,5.00
2022-12-20T06:03:57.844Z,5.00
2022-12-20T06:06:26.094Z,5.00
2022-12-20T06:08:56.086Z,5.00
2022-12-20T06:11:29.651Z,5.00
2022-12-20T06:13:59.175Z,5.00
2022-12-20T06:16:28.841Z,5.00
2022-12-20T06:18:57.372Z,5.00
2022-12-20T06:21:27.588Z,5.00
2022-12-20T06:23:56.697Z,5.10
2022-12-20T06:26:24.978Z,5.10
2022-12-20T06:28:56.639Z,5.10
2022-12-20T06:31:24.827Z,5.10
2022-12-20T06:33:54.647Z,5.10
2022-12-20T06:36:22.921Z,5.10
2022-12-20T06:38:51.047Z,5.10
2022-12-20T06:43:49.656Z,5.10
2022-12-20T06:46:17.944Z,5.00
2022-12-20T06:48:46.169Z,4.90
2022-12-20T06:51:17.218Z,4.90
2022-12-20T06:53:45.472Z,5.00
2022-12-20T06:56:13.601Z,5.00
2022-12-20T06:58:41.762Z,5.00
2022-12-20T07:01:09.968Z,5.00
2022-12-20T07:03:38.150Z,4.90
2022-12-20T07:06:06.929Z,4.80
2022-12-20T07:08:36.655Z,4.90
2022-12-20T07:11:06.768Z,4.80
2022-12-20T08:08:52.311Z,5.70
2022-12-20T08:11:24.789Z,5.60
2022-12-20T08:18:58.347Z,5.40
2022-12-20T08:21:26.601Z,5.40
2022-12-20T08:23:54.770Z,5.30
2022-12-20T08:26:25.036Z,5.30
2022-12-20T08:28:53.226Z,5.30
2022-12-20T08:31:21.418Z,5.40
2022-12-20T08:33:50.049Z,5.30
2022-12-20T08:36:18.185Z,5.30
2022-12-20T08:38:46.357Z,5.20
2022-12-20T08:41:16.720Z,5.30
2022-12-20T08:43:46.211Z,5.30
2022-12-20T08:46:14.441Z,5.30
2022-12-20T08:48:42.732Z,5.40
2022-12-20T08:51:12.930Z,5.30
2022-12-20T08:53:41.344Z,5.30
2022-12-20T08:56:13.043Z,5.40
2022-12-20T08:58:42.709Z,5.40
2022-12-20T09:01:16.310Z,5.40
2022-12-20T09:03:45.366Z,5.50
2022-12-20T09:06:16.393Z,5.60
2022-12-20T09:08:44.897Z,5.60
2022-12-20T09:11:15.667Z,5.70
2022-12-20T09:13:46.688Z,5.60
2022-12-20T09:16:19.214Z,5.70
2022-12-20T09:18:50.670Z,5.80
2022-12-20T09:21:20.085Z,5.80
2022-12-20T09:23:51.155Z,5.80
2022-12-20T09:26:21.047Z,5.80
2022-12-20T09:28:50.154Z,5.80
2022-12-20T09:31:22.503Z,5.80
2022-12-20T09:33:51.864Z,5.80
2022-12-20T09:36:22.801Z,5.90
2022-12-20T09:38:51.738Z,6.00
2022-12-20T09:41:29.925Z,6.10
2022-12-20T09:49:03.425Z,6.30
2022-12-20T09:52:00.213Z,6.30
2022-12-20T09:54:43.539Z,6.30
2022-12-20T09:57:25.548Z,6.40
2022-12-20T09:59:57.063Z,6.30
2022-12-20T10:02:55.720Z,6.40
2022-12-20T10:05:21.260Z,6.50
2022-12-20T10:07:59.089Z,6.60
2022-12-20T10:10:55.142Z,6.60
2022-12-20T10:13:49.484Z,6.70
2022-12-20T10:16:37.920Z,6.60
2022-12-20T10:19:30.559Z,6.70
2022-12-20T10:22:12.584Z,6.70
2022-12-20T10:24:48.161Z,6.80
2022-12-20T10:27:20.045Z,6.80
2022-12-20T10:29:51.423Z,6.80
2022-12-20T10:32:23.567Z,6.80
2022-12-20T10:35:13.336Z,6.90
2022-12-20T10:38:08.379Z,6.90
2022-12-20T10:43:44.623Z,6.90
2022-12-20T10:46:14.648Z,6.90
2022-12-20T10:48:46.741Z,6.90
2022-12-20T10:51:20.445Z,7.00
2022-12-20T10:53:56.293Z,6.90
2022-12-20T10:56:28.516Z,6.90
2022-12-20T10:58:59.958Z,7.00
2022-12-20T11:01:32.420Z,7.00
2022-12-20T11:04:04.722Z,7.10
2022-12-20T11:06:46.490Z,7.20
2022-12-20T11:14:38.757Z,7.10
2022-12-20T11:17:26.039Z,7.30
2022-12-20T11:20:23.429Z,7.20
2022-12-20T11:23:07.365Z,7.10
2022-12-20T11:26:05.109Z,7.10
2022-12-20T11:28:59.549Z,7.00
2022-12-20T11:31:42.801Z,7.00
2022-12-20T11:34:32.859Z,6.90
2022-12-20T11:37:18.280Z,6.80
2022-12-20T11:40:05.335Z,6.80
2022-12-20T11:42:53.597Z,6.80
2022-12-20T11:45:31.490Z,6.80
2022-12-20T11:48:35.770Z,6.80
2022-12-20T11:51:15.630Z,6.80
2022-12-20T11:53:55.532Z,6.80
2022-12-20T11:56:36.235Z,6.90
2022-12-20T11:59:18.457Z,6.90
2022-12-20T12:01:54.638Z,6.80
2022-12-20T12:04:27.538Z,6.80
2022-12-20T12:07:04.219Z,6.80
2022-12-20T12:09:39.703Z,6.90
2022-12-20T12:12:19.375Z,6.90
2022-12-20T12:14:59.560Z,6.80
2022-12-20T12:17:40.731Z,6.80
2022-12-20T12:20:32.611Z,6.90
2022-12-20T12:23:13.558Z,6.90
2022-12-20T12:25:41.596Z,6.90
2022-12-20T12:28:14.461Z,6.90
2022-12-20T12:30:48.721Z,6.90
2022-12-20T12:33:25.556Z,6.90
2022-12-20T12:36:17.740Z,6.90
2022-12-20T12:39:50.452Z,7.00
2022-12-20T12:42:59.181Z,7.00
2022-12-20T12:45:36.039Z,7.10
2022-12-20T12:48:09.381Z,7.10
2022-12-20T12:50:44.080Z,7.10
2022-12-20T12:53:18.432Z,7.10
2022-12-20T12:55:49.175Z,7.10
2022-12-20T12:58:33.569Z,7.10
2022-12-20T13:01:08.081Z,7.00
2022-12-20T13:03:48.122Z,7.00
2022-12-20T13:06:56.181Z,7.00
2022-12-20T13:09:43.587Z,7.00
2022-12-20T13:13:01.253Z,6.90
2022-12-20T13:16:08.135Z,6.90
2022-12-20T13:18:36.312Z,6.90
2022-12-20T13:21:37.451Z,6.90
2022-12-20T13:24:57.045Z,6.90
2022-12-20T13:30:22.201Z,6.80
2022-12-20T13:33:17.260Z,6.70
2022-12-20T13:36:32.563Z,6.70
2022-12-20T13:39:03.960Z,6.60
2022-12-20T13:41:44.930Z,6.60
2022-12-20T13:44:42.478Z,6.60
2022-12-20T13:47:37.614Z,6.60
2022-12-20T13:53:00.403Z,6.80
2022-12-20T13:55:36.841Z,6.60
2022-12-20T13:58:15.343Z,6.60
2022-12-20T14:00:44.509Z,6.60
2022-12-20T14:03:24.694Z,6.60
2022-12-20T14:05:59.666Z,6.70
2022-12-20T14:08:34.271Z,6.60
2022-12-20T14:11:14.492Z,6.60
2022-12-20T14:13:43.645Z,6.60
2022-12-20T14:16:17.244Z,6.60
2022-12-20T14:18:50.484Z,6.50
2022-12-20T14:21:20.286Z,6.50
2022-12-20T14:23:53.107Z,6.40
2022-12-20T14:26:27.324Z,6.40
2022-12-20T14:28:58.100Z,6.40
2022-12-20T14:31:30.484Z,6.50
2022-12-20T14:34:13.323Z,6.40
2022-12-20T14:36:45.211Z,6.40
2022-12-20T14:39:29.568Z,6.40
2022-12-20T14:41:59.848Z,6.40
2022-12-20T14:44:31.737Z,6.30
2022-12-20T14:47:02.058Z,6.30
2022-12-20T14:49:33.078Z,6.30
2022-12-20T14:52:16.313Z,6.20
2022-12-20T14:55:08.953Z,6.20
2022-12-20T14:57:47.384Z,6.20
2022-12-20T15:00:24.218Z,6.10
2022-12-20T15:03:01.023Z,6.20
2022-12-20T15:05:51.120Z,6.20
2022-12-20T15:08:23.149Z,6.20
2022-12-20T15:10:57.123Z,6.30
2022-12-20T15:13:32.236Z,6.20
2022-12-20T15:16:02.441Z,6.20
2022-12-20T15:18:30.914Z,6.10
2022-12-20T15:21:07.538Z,6.10
2022-12-20T15:23:36.188Z,6.10
2022-12-20T15:26:05.987Z,6.00
2022-12-20T15:28:34.363Z,6.00
2022-12-20T15:31:04.613Z,6.00
2022-12-20T15:33:35.727Z,6.00
2022-12-20T15:36:03.974Z,6.00
2022-12-20T15:39:03.225Z,6.00
2022-12-20T15:41:25.526Z,6.00
2022-12-20T15:43:58.446Z,5.90
2022-12-20T15:46:26.969Z,6.00
2022-12-20T15:48:55.804Z,6.10
2022-12-20T15:51:31.902Z,6.20
2022-12-20T15:54:03.468Z,6.20
2022-12-20T15:56:32.988Z,6.10
2022-12-20T15:59:05.467Z,6.10
2022-12-20T16:01:46.925Z,6.10
2022-12-20T16:04:18.535Z,6.10
2022-12-20T16:06:50.503Z,6.10
2022-12-20T16:09:18.910Z,6.10
2022-12-20T16:11:49.959Z,6.10
2022-12-20T16:14:21.133Z,6.10
2022-12-20T16:16:50.118Z,6.10
2022-12-20T16:19:19.319Z,6.00
2022-12-20T16:21:49.669Z,6.00
2022-12-20T16:24:20.288Z,6.10
2022-12-20T16:26:50.197Z,6.10
2022-12-20T16:29:18.327Z,6.00
2022-12-20T16:31:46.506Z,6.10
2022-12-20T16:34:17.729Z,6.10
2022-12-20T16:36:47.469Z,6.10
2022-12-20T16:39:15.599Z,6.10
2022-12-20T16:41:44.813Z,6.10
2022-12-20T16:44:19.319Z,6.10
2022-12-20T16:46:47.453Z,6.10
2022-12-20T16:49:20.341Z,6.20
2022-12-20T16:51:50.708Z,6.10
2022-12-20T16:54:22.204Z,6.10
2022-12-20T16:56:55.447Z,6.20
2022-12-20T16:59:25.720Z,6.20
2022-12-20T17:01:57.560Z,6.20
2022-12-20T17:04:27.227Z,6.20
2022-12-20T17:06:55.565Z,6.20
2022-12-20T17:12:16.113Z,6.20
2022-12-20T17:14:46.275Z,6.10
2022-12-20T17:17:14.727Z,6.20
2022-12-20T17:19:43.064Z,6.20
2022-12-20T17:24:59.905Z,6.20
2022-12-20T17:27:28.024Z,6.20
2022-12-20T17:29:57.492Z,6.10
2022-12-20T17:32:26.378Z,6.00
2022-12-20T17:34:55.352Z,6.10
2022-12-20T17:37:24.562Z,6.10
2022-12-20T17:39:52.707Z,6.10
2022-12-20T17:42:25.579Z,6.30
2022-12-20T17:44:58.358Z,6.30
2022-12-20T17:47:26.467Z,6.40
2022-12-20T17:49:54.517Z,6.40
2022-12-20T17:52:22.941Z,6.40
2022-12-20T17:54:50.983Z,6.30
2022-12-20T17:57:19.126Z,6.30
2022-12-20T17:59:47.276Z,6.30
2022-12-20T18:02:27.337Z,6.40
2022-12-20T18:04:55.584Z,6.30
2022-12-20T18:07:23.644Z,6.30
2022-12-20T18:09:51.848Z,6.40
2022-12-20T18:12:19.943Z,6.40
2022-12-20T18:14:50.686Z,6.30
2022-12-20T18:17:19.050Z,6.40
2022-12-20T18:19:48.562Z,6.40
2022-12-20T18:22:16.925Z,6.40
2022-12-20T18:24:45.123Z,6.30
2022-12-20T18:27:13.628Z,6.30
2022-12-20T18:29:41.798Z,6.30
2022-12-20T18:32:09.994Z,6.20
2022-12-20T18:34:38.188Z,6.20
2022-12-20T18:37:07.655Z,6.40
2022-12-20T18:39:37.047Z,6.40
2022-12-20T18:42:05.477Z,6.40
2022-12-20T18:44:35.761Z,6.40
2022-12-20T18:47:04.771Z,6.40
2022-12-20T18:49:33.126Z,6.40
2022-12-20T18:52:01.299Z,6.40
2022-12-20T18:54:31.296Z,6.30
2022-12-20T18:56:59.546Z,6.40
2022-12-20T18:59:27.721Z,6.30
2022-12-20T19:01:56.043Z,6.30
2022-12-20T19:04:25.284Z,6.30
2022-12-20T19:06:53.873Z,6.20
2022-12-20T19:09:22.401Z,6.20
2022-12-20T19:11:57.126Z,6.20
2022-12-20T19:14:26.375Z,6.20
2022-12-20T19:16:54.776Z,6.10
2022-12-20T19:19:23.003Z,6.10
2022-12-20T19:21:51.227Z,6.10
2022-12-20T19:24:19.349Z,6.10
2022-12-20T19:26:47.469Z,6.10
2022-12-20T19:29:16.969Z,6.10
2022-12-20T19:31:45.196Z,6.10
2022-12-20T19:34:14.963Z,6.10
2022-12-20T19:36:46.269Z,6.20
2022-12-20T19:39:17.100Z,6.20
2022-12-20T19:42:05.997Z,6.20
2022-12-20T19:44:35.470Z,6.30
2022-12-20T19:47:06.843Z,6.30
2022-12-20T19:49:36.598Z,6.30
2022-12-20T19:52:05.699Z,6.20
2022-12-20T19:55:49.424Z,6.20
2022-12-20T19:58:17.551Z,6.20
2022-12-20T20:00:50.399Z,6.20
2022-12-20T20:03:19.900Z,6.30
2022-12-20T20:05:49.090Z,6.30
2022-12-20T20:08:17.368Z,6.30
2022-12-20T20:10:48.588Z,6.30
2022-12-20T20:13:16.807Z,6.30
2022-12-20T20:15:52.709Z,6.20
2022-12-20T20:18:21.252Z,6.10
2022-12-20T20:23:18.115Z,6.00
2022-12-20T20:25:47.096Z,6.00
2022-12-20T20:28:15.377Z,6.00
2022-12-20T20:30:44.035Z,6.00
2022-12-20T20:33:13.699Z,6.00
2022-12-20T20:35:41.919Z,6.20
2022-12-20T20:38:12.791Z,6.10
2022-12-20T20:40:41.076Z,6.10
2022-12-20T20:43:09.178Z,6.20
2022-12-20T20:45:37.313Z,6.20
2022-12-20T20:48:06.341Z,6.10
2022-12-20T20:50:36.572Z,6.00
2022-12-20T20:53:06.127Z,6.20
2022-12-20T20:55:34.567Z,6.10
2022-12-20T20:58:02.997Z,6.20
2022-12-20T21:00:31.925Z,6.20
2022-12-20T21:03:00.527Z,6.10
2022-12-20T21:06:38.612Z,6.10
2022-12-20T21:08:20.020Z,6.20
2022-12-20T21:10:48.318Z,6.20
2022-12-20T21:13:17.249Z,6.20
2022-12-20T21:15:46.468Z,6.20
2022-12-20T21:18:15.289Z,6.20
2022-12-20T21:20:43.360Z,6.30
2022-12-20T21:23:12.389Z,6.20
2022-12-20T21:25:41.889Z,6.30
2022-12-20T21:28:17.690Z,6.20
2022-12-20T21:30:49.120Z,6.20
2022-12-20T21:33:17.249Z,6.20
2022-12-20T21:35:51.657Z,6.20
2022-12-20T21:38:21.955Z,6.40
2022-12-20T21:40:51.421Z,6.40
2022-12-20T21:43:19.499Z,6.40
2022-12-20T21:45:51.438Z,6.40
2022-12-20T21:48:20.077Z,6.40
2022-12-20T21:50:58.335Z,6.30
2022-12-20T21:53:26.478Z,6.40
2022-12-20T21:55:58.715Z,6.40
2022-12-20T21:58:30.440Z,6.40
2022-12-20T22:00:59.096Z,6.30
2022-12-20T22:03:27.739Z,6.40
2022-12-20T22:05:56.823Z,6.30
2022-12-20T22:08:27.584Z,6.40
2022-12-20T22:11:05.839Z,6.40
2022-12-20T22:13:41.037Z,6.30
2022-12-20T22:16:11.896Z,6.30
2022-12-20T22:18:41.380Z,6.30
2022-12-20T22:21:14.253Z,6.30
2022-12-20T22:23:43.397Z,6.40
2022-12-20T22:26:16.331Z,6.30
2022-12-20T22:28:47.818Z,6.40
2022-12-20T22:31:16.876Z,6.40
2022-12-20T22:33:45.835Z,6.40
2022-12-20T22:36:15.900Z,6.10
2022-12-20T22:38:44.692Z,6.40
2022-12-20T22:41:16.922Z,6.40
2022-12-20T22:43:46.770Z,6.40
2022-12-20T22:46:16.648Z,6.40
2022-12-20T22:48:46.225Z,6.30
2022-12-20T22:51:17.492Z,6.40
2022-12-20T22:53:47.463Z,6.40
2022-12-20T22:56:21.092Z,6.40
2022-12-20T23:01:22.108Z,6.30
2022-12-20T23:03:50.664Z,6.30
2022-12-20T23:06:21.621Z,6.40
2022-12-20T23:08:50.487Z,6.40
2022-12-20T23:22:40.219Z,6.30
2022-12-20T23:25:12.309Z,6.30
2022-12-20T23:27:43.888Z,6.30
2022-12-20T23:30:15.824Z,6.30
2022-12-20T23:32:45.098Z,6.30
2022-12-20T23:35:13.872Z,6.30
2022-12-20T23:37:42.757Z,6.20
2022-12-20T23:40:12.843Z,6.20
2022-12-20T23:42:42.293Z,6.10
2022-12-20T23:45:12.033Z,6.10
2022-12-20T23:47:40.198Z,6.00
2022-12-20T23:50:09.751Z,5.90
2022-12-20T23:52:37.897Z,5.80
2022-12-20T23:55:07.422Z,5.80
2022-12-20T23:57:35.545Z,5.60
